Time;durP1;ratioP1;P1;durP2;ratioP2;P2;SDS_P1;SDS_P2;PMS_P1;PMS_P2;Temp;Humidity;BMP_temperature;BMP_pressure;BME280_temperature;BME280_humidity;BME280_pressure;Samples;Min_cycle;Max_cycle;Signal;HPM_P1;HPM_P2
2021/09/11 00:00:35;;;;;;;33.75;20.63;;;;;;;;;;4997343;28;20613;-75
2021/09/11 00:03:01;;;;;;;29.98;19.25;;;;;;;;;;4992398;28;20664;-75
2021/09/11 00:05:27;;;;;;;38.67;20.55;;;;;;;;;;4994589;28;20658;-75
2021/09/11 00:07:52;;;;;;;38.75;20.67;;;;;;;;;;4989291;28;20630;-75
2021/09/11 00:10:18;;;;;;;37.60;22.30;;;;;;;;;;4993787;28;20681;-75
2021/09/11 00:12:44;;;;;;;49.03;25.40;;;;;;;;;;4991316;28;20201;-75
2021/09/11 00:15:12;;;;;;;48.42;26.48;;;;;;;;;;4986382;28;20193;-75
2021/09/11 00:17:38;;;;;;;46.83;26.83;;;;;;;;;;4994708;28;20202;-75
2021/09/11 00:20:05;;;;;;;43.30;24.45;;;;;;;;;;4986202;28;20253;-75
2021/09/11 00:22:30;;;;;;;38.30;23.25;;;;;;;;;;4991412;28;20540;-75
2021/09/11 00:24:56;;;;;;;38.45;24.45;;;;;;;;;;4987628;28;20195;-75
2021/09/11 00:27:21;;;;;;;37.13;22.27;;;;;;;;;;4996721;28;20217;-75
2021/09/11 00:29:46;;;;;;;44.70;27.60;;;;;;;;;;4985702;28;20217;-75
2021/09/11 00:32:12;;;;;;;47.53;27.60;;;;;;;;;;4992884;28;20234;-75
2021/09/11 00:34:37;;;;;;;43.80;26.35;;;;;;;;;;4986638;28;20684;-75
2021/09/11 00:37:03;;;;;;;43.65;26.38;;;;;;;;;;4996389;28;20187;-75
2021/09/11 00:39:28;;;;;;;51.40;28.00;;;;;;;;;;4988172;28;20270;-75
2021/09/11 00:41:54;;;;;;;34.30;21.95;;;;;;;;;;4992960;28;20600;-75
2021/09/11 00:44:19;;;;;;;41.70;25.42;;;;;;;;;;4993011;28;20242;-75
2021/09/11 00:46:45;;;;;;;32.88;22.35;;;;;;;;;;4987425;28;20198;-75
2021/09/11 00:49:11;;;;;;;43.28;25.92;;;;;;;;;;4993562;28;20234;-75
2021/09/11 00:51:37;;;;;;;44.92;27.48;;;;;;;;;;4983952;28;20604;-75
2021/09/11 00:54:03;;;;;;;46.63;26.27;;;;;;;;;;4994624;28;20297;-75
2021/09/11 00:56:30;;;;;;;41.30;26.77;;;;;;;;;;4983716;28;20197;-75
2021/09/11 00:58:55;;;;;;;42.70;25.17;;;;;;;;;;4993934;28;20199;-75
2021/09/11 01:01:21;;;;;;;40.22;24.67;;;;;;;;;;4986069;28;20198;-75
2021/09/11 01:03:46;;;;;;;40.10;25.60;;;;;;;;;;4994731;28;20210;-75
2021/09/11 01:06:12;;;;;;;44.35;27.05;;;;;;;;;;4985418;28;20369;-75
2021/09/11 01:08:40;;;;;;;45.33;27.20;;;;;;;;;;4997341;28;20251;-75
2021/09/11 01:11:07;;;;;;;41.92;27.40;;;;;;;;;;4991520;28;20217;-75
2021/09/11 01:13:33;;;;;;;46.92;26.33;;;;;;;;;;4994562;28;20197;-74
2021/09/11 01:15:59;;;;;;;48.42;27.33;;;;;;;;;;4993948;28;20210;-75
2021/09/11 01:18:26;;;;;;;47.65;28.52;;;;;;;;;;4985939;28;20230;-75
2021/09/11 01:20:52;;;;;;;45.85;27.95;;;;;;;;;;4991848;28;20540;-74
2021/09/11 01:23:17;;;;;;;51.35;30.55;;;;;;;;;;4985823;28;20202;-74
2021/09/11 01:25:42;;;;;;;51.22;30.33;;;;;;;;;;4991864;28;20199;-75
2021/09/11 01:28:08;;;;;;;49.15;31.05;;;;;;;;;;4984614;28;20213;-75
2021/09/11 01:30:33;;;;;;;50.38;28.58;;;;;;;;;;4996950;28;20218;-74
2021/09/11 01:32:59;;;;;;;48.25;28.08;;;;;;;;;;4993104;28;20293;-74
2021/09/11 01:35:24;;;;;;;60.97;30.73;;;;;;;;;;5001086;28;20202;-75
2021/09/11 01:37:49;;;;;;;50.20;29.00;;;;;;;;;;4990404;28;21112;-75
2021/09/11 01:40:15;;;;;;;53.28;29.98;;;;;;;;;;5000330;28;20199;-75
2021/09/11 01:42:41;;;;;;;55.08;31.52;;;;;;;;;;4994934;28;20186;-75
2021/09/11 01:45:08;;;;;;;54.63;31.38;;;;;;;;;;4995925;28;20194;-75
2021/09/11 01:47:34;;;;;;;43.97;26.63;;;;;;;;;;5000048;28;20654;-74
2021/09/11 01:49:59;;;;;;;57.15;31.23;;;;;;;;;;4992388;28;20225;-75
2021/09/11 01:52:24;;;;;;;57.42;33.45;;;;;;;;;;4999172;28;20237;-74
2021/09/11 01:54:50;;;;;;;55.80;30.80;;;;;;;;;;4993744;28;20199;-75
2021/09/11 01:57:15;;;;;;;55.92;31.70;;;;;;;;;;4998248;28;20187;-75
2021/09/11 01:59:42;;;;;;;63.80;34.28;;;;;;;;;;4984953;28;20221;-75
2021/09/11 02:02:09;;;;;;;61.42;33.08;;;;;;;;;;5000553;28;20191;-75
2021/09/11 02:04:35;;;;;;;52.00;31.27;;;;;;;;;;4992271;28;20245;-74
2021/09/11 02:07:04;;;;;;;54.22;31.25;;;;;;;;;;4998231;28;20209;-75
2021/09/11 02:09:31;;;;;;;50.90;29.60;;;;;;;;;;4991029;28;20612;-75
2021/09/11 02:11:57;;;;;;;58.28;31.67;;;;;;;;;;5001285;28;20263;-75
2021/09/11 02:14:22;;;;;;;39.35;25.65;;;;;;;;;;4995305;28;20210;-75
2021/09/11 02:16:48;;;;;;;40.15;26.42;;;;;;;;;;4996818;28;20313;-75
2021/09/11 02:19:14;;;;;;;53.00;30.80;;;;;;;;;;4998347;28;20178;-75
2021/09/11 02:21:39;;;;;;;44.20;27.80;;;;;;;;;;4990175;28;20197;-75
2021/09/11 02:24:05;;;;;;;46.10;29.27;;;;;;;;;;5001319;28;20206;-74
2021/09/11 02:26:31;;;;;;;48.80;30.17;;;;;;;;;;4990684;28;20210;-75
2021/09/11 02:28:56;;;;;;;49.55;29.13;;;;;;;;;;4994126;28;20692;-75
2021/09/11 02:31:21;;;;;;;49.72;29.25;;;;;;;;;;4991246;28;20611;-74
2021/09/11 02:33:47;;;;;;;49.15;29.52;;;;;;;;;;4998175;28;20281;-75
2021/09/11 02:36:13;;;;;;;47.17;29.42;;;;;;;;;;4990137;28;20277;-74
2021/09/11 02:38:38;;;;;;;46.78;28.70;;;;;;;;;;4998450;28;20198;-74
2021/09/11 02:41:04;;;;;;;46.15;29.63;;;;;;;;;;4991707;28;20659;-75
2021/09/11 02:43:29;;;;;;;47.80;29.88;;;;;;;;;;4997126;28;20199;-74
2021/09/11 02:45:56;;;;;;;41.95;26.90;;;;;;;;;;4999853;28;20183;-75
2021/09/11 02:48:21;;;;;;;44.03;28.75;;;;;;;;;;4992198;28;20566;-75
2021/09/11 02:50:46;;;;;;;44.35;30.83;;;;;;;;;;4997780;28;20208;-74
2021/09/11 02:53:11;;;;;;;40.85;27.73;;;;;;;;;;4990699;28;20237;-74
2021/09/11 02:55:37;;;;;;;41.67;27.90;;;;;;;;;;5002063;28;20191;-75
2021/09/11 02:58:02;;;;;;;44.65;28.13;;;;;;;;;;4990703;28;20293;-74
2021/09/11 03:00:28;;;;;;;41.88;27.73;;;;;;;;;;4999704;28;20184;-75
2021/09/11 03:02:53;;;;;;;36.67;25.25;;;;;;;;;;4991881;28;20547;-73
2021/09/11 03:05:18;;;;;;;41.00;26.90;;;;;;;;;;5000914;28;20238;-75
2021/09/11 03:07:44;;;;;;;41.85;27.15;;;;;;;;;;4990103;28;20209;-74
2021/09/11 03:10:10;;;;;;;42.63;25.08;;;;;;;;;;4998205;28;20366;-74
2021/09/11 03:12:35;;;;;;;34.40;22.33;;;;;;;;;;4989788;28;20683;-74
2021/09/11 03:15:01;;;;;;;36.50;24.77;;;;;;;;;;4997394;28;20273;-74
2021/09/11 03:17:26;;;;;;;36.28;25.23;;;;;;;;;;4997916;28;20186;-74
2021/09/11 03:19:51;;;;;;;33.28;21.58;;;;;;;;;;4990881;28;20194;-75
2021/09/11 03:22:17;;;;;;;38.30;25.08;;;;;;;;;;4998921;28;20345;-75
2021/09/11 03:24:42;;;;;;;35.08;23.48;;;;;;;;;;4991335;28;20199;-74
2021/09/11 03:27:08;;;;;;;42.38;25.40;;;;;;;;;;4998266;28;20281;-75
2021/09/11 03:29:33;;;;;;;39.28;25.08;;;;;;;;;;4992388;28;20606;-75
2021/09/11 03:31:58;;;;;;;39.63;24.85;;;;;;;;;;4999166;28;20197;-74
2021/09/11 03:34:24;;;;;;;37.05;24.95;;;;;;;;;;4989251;28;20194;-75
2021/09/11 03:36:49;;;;;;;44.20;25.20;;;;;;;;;;4998768;28;20206;-75
2021/09/11 03:39:14;;;;;;;39.35;23.50;;;;;;;;;;4989698;28;20190;-75
2021/09/11 03:41:40;;;;;;;39.72;25.38;;;;;;;;;;4997335;28;20261;-73
2021/09/11 03:44:05;;;;;;;42.72;24.98;;;;;;;;;;4991019;28;20183;-74
2021/09/11 03:46:31;;;;;;;31.67;21.38;;;;;;;;;;4999810;28;20793;-75
2021/09/11 03:48:56;;;;;;;35.05;23.65;;;;;;;;;;4995686;28;20189;-73
2021/09/11 03:51:21;;;;;;;43.33;25.08;;;;;;;;;;4989956;28;20274;-74
2021/09/11 03:53:47;;;;;;;44.35;26.52;;;;;;;;;;4998569;28;20199;-74
2021/09/11 03:56:12;;;;;;;45.17;25.73;;;;;;;;;;4989384;28;20190;-74
2021/09/11 03:58:37;;;;;;;46.38;26.52;;;;;;;;;;4997507;28;20253;-74
2021/09/11 04:01:03;;;;;;;44.40;25.88;;;;;;;;;;4988644;28;20716;-73
2021/09/11 04:03:29;;;;;;;42.00;23.98;;;;;;;;;;4998853;28;21470;-74
2021/09/11 04:05:55;;;;;;;46.70;27.02;;;;;;;;;;4985614;28;20729;-73
2021/09/11 04:08:21;;;;;;;45.58;27.58;;;;;;;;;;4993913;28;20238;-73
2021/09/11 04:10:46;;;;;;;40.83;24.58;;;;;;;;;;4985620;28;20806;-73
2021/09/11 04:13:11;;;;;;;46.97;27.48;;;;;;;;;;4999430;28;20190;-74
2021/09/11 04:15:37;;;;;;;46.38;27.70;;;;;;;;;;4989109;28;20568;-74
2021/09/11 04:18:02;;;;;;;48.78;26.13;;;;;;;;;;4998535;28;20193;-74
2021/09/11 04:20:28;;;;;;;48.30;26.80;;;;;;;;;;4997488;28;20226;-74
2021/09/11 04:22:53;;;;;;;52.88;28.70;;;;;;;;;;4295234;28;10000870;-75
2021/09/11 04:25:19;;;;;;;58.40;29.17;;;;;;;;;;4992215;28;20212;-74
2021/09/11 04:27:44;;;;;;;47.78;25.52;;;;;;;;;;4986455;28;20202;-74
2021/09/11 04:30:10;;;;;;;53.63;31.10;;;;;;;;;;4992555;28;21404;-74
2021/09/11 04:32:36;;;;;;;56.50;30.20;;;;;;;;;;4987784;28;20191;-74
2021/09/11 04:35:02;;;;;;;60.75;31.75;;;;;;;;;;4994111;28;20198;-73
2021/09/11 04:37:28;;;;;;;63.78;32.20;;;;;;;;;;4985090;28;20284;-74
2021/09/11 04:39:54;;;;;;;48.40;27.42;;;;;;;;;;4993037;28;20661;-74
2021/09/11 04:42:19;;;;;;;54.83;29.95;;;;;;;;;;4985812;28;20204;-74
2021/09/11 04:44:45;;;;;;;61.22;32.33;;;;;;;;;;4992604;28;20199;-74
2021/09/11 04:47:10;;;;;;;49.22;27.27;;;;;;;;;;4993430;28;20793;-73
2021/09/11 04:49:35;;;;;;;54.90;29.83;;;;;;;;;;4984619;28;20289;-74
2021/09/11 04:52:01;;;;;;;46.00;25.75;;;;;;;;;;4995171;28;20202;-74
2021/09/11 04:54:26;;;;;;;56.90;30.10;;;;;;;;;;4984006;28;20206;-74
2021/09/11 04:56:52;;;;;;;63.13;32.13;;;;;;;;;;4997138;28;20264;-73
2021/09/11 04:59:17;;;;;;;59.70;31.88;;;;;;;;;;4982181;28;20210;-74
2021/09/11 05:01:42;;;;;;;55.70;28.17;;;;;;;;;;4994030;28;20201;-73
2021/09/11 05:04:09;;;;;;;54.38;29.52;;;;;;;;;;4983051;28;20191;-74
2021/09/11 05:06:34;;;;;;;49.42;28.10;;;;;;;;;;4993984;28;20226;-73
2021/09/11 05:08:59;;;;;;;49.63;27.13;;;;;;;;;;4983877;28;20194;-74
2021/09/11 05:11:25;;;;;;;47.85;26.77;;;;;;;;;;4992583;28;20191;-74
2021/09/11 05:13:50;;;;;;;57.25;28.52;;;;;;;;;;4987009;28;20273;-74
2021/09/11 05:16:15;;;;;;;42.55;25.77;;;;;;;;;;4989536;28;20761;-74
2021/09/11 05:18:41;;;;;;;53.33;28.63;;;;;;;;;;4991827;28;20682;-74
2021/09/11 05:21:07;;;;;;;54.13;30.08;;;;;;;;;;4987067;28;20732;-74
2021/09/11 05:23:33;;;;;;;48.63;26.85;;;;;;;;;;4991324;28;20675;-74
2021/09/11 05:26:00;;;;;;;51.53;27.95;;;;;;;;;;4985072;28;20190;-74
2021/09/11 05:28:25;;;;;;;53.20;27.70;;;;;;;;;;4992460;28;20203;-74
2021/09/11 05:30:50;;;;;;;53.58;28.58;;;;;;;;;;4986322;28;20644;-73
2021/09/11 05:33:16;;;;;;;48.30;27.38;;;;;;;;;;4992137;28;20673;-73
2021/09/11 05:35:41;;;;;;;40.85;23.17;;;;;;;;;;4984287;28;20199;-74
2021/09/11 05:38:07;;;;;;;46.90;26.05;;;;;;;;;;4991747;28;20194;-73
2021/09/11 05:40:32;;;;;;;56.83;28.58;;;;;;;;;;4984549;28;20186;-73
2021/09/11 05:42:57;;;;;;;48.45;24.67;;;;;;;;;;4992527;28;20694;-73
2021/09/11 05:45:23;;;;;;;40.80;24.30;;;;;;;;;;4990991;28;20700;-73
2021/09/11 05:47:48;;;;;;;50.72;28.08;;;;;;;;;;4983990;28;20195;-73
2021/09/11 05:50:13;;;;;;;52.67;29.65;;;;;;;;;;4993520;28;20210;-73
2021/09/11 05:52:39;;;;;;;50.58;28.30;;;;;;;;;;4984278;28;20257;-73
2021/09/11 05:55:05;;;;;;;44.05;26.50;;;;;;;;;;4993545;28;20210;-73
2021/09/11 05:57:30;;;;;;;47.33;24.63;;;;;;;;;;4982898;28;20245;-71
2021/09/11 05:59:56;;;;;;;46.25;26.05;;;;;;;;;;4992865;28;20281;-73
2021/09/11 06:02:22;;;;;;;40.10;24.15;;;;;;;;;;4975166;28;20234;-74
2021/09/11 06:04:48;;;;;;;41.40;25.55;;;;;;;;;;4988164;28;20191;-73
2021/09/11 06:07:13;;;;;;;46.17;27.17;;;;;;;;;;4982578;28;20236;-73
2021/09/11 06:09:39;;;;;;;43.20;26.95;;;;;;;;;;4991656;28;20757;-74
2021/09/11 06:12:09;;;;;;;39.83;24.17;;;;;;;;;;4979808;28;22144;-73
2021/09/11 06:14:35;;;;;;;44.80;27.05;;;;;;;;;;4989445;28;20669;-74
2021/09/11 06:17:00;;;;;;;42.45;25.92;;;;;;;;;;4988540;28;20195;-74
2021/09/11 06:19:25;;;;;;;41.35;24.83;;;;;;;;;;4983936;28;20198;-74
2021/09/11 06:21:51;;;;;;;41.03;26.85;;;;;;;;;;4988227;28;20194;-73
2021/09/11 06:24:16;;;;;;;44.65;25.70;;;;;;;;;;4985375;28;20191;-73
2021/09/11 06:26:41;;;;;;;45.65;25.17;;;;;;;;;;4990525;28;20194;-73
2021/09/11 06:29:07;;;;;;;51.35;27.67;;;;;;;;;;4984612;28;20290;-73
2021/09/11 06:31:32;;;;;;;45.58;27.25;;;;;;;;;;4987755;28;20531;-73
2021/09/11 06:33:58;;;;;;;47.65;26.98;;;;;;;;;;4982183;28;20603;-73
2021/09/11 06:36:23;;;;;;;46.33;27.70;;;;;;;;;;4993017;28;20191;-73
2021/09/11 06:38:48;;;;;;;39.22;25.98;;;;;;;;;;4989397;28;20728;-74
2021/09/11 06:41:14;;;;;;;39.95;25.40;;;;;;;;;;4993849;28;20197;-74
2021/09/11 06:43:39;;;;;;;39.70;25.92;;;;;;;;;;4986085;28;20190;-73
2021/09/11 06:46:04;;;;;;;38.50;26.00;;;;;;;;;;4991059;28;20253;-73
2021/09/11 06:48:29;;;;;;;44.90;25.48;;;;;;;;;;4996943;28;20195;-74
2021/09/11 06:50:55;;;;;;;35.78;23.90;;;;;;;;;;4983493;28;20219;-73
2021/09/11 06:53:20;;;;;;;37.97;24.20;;;;;;;;;;4995994;28;20183;-73
2021/09/11 06:55:46;;;;;;;35.33;24.00;;;;;;;;;;4982018;28;20655;-73
2021/09/11 06:58:11;;;;;;;43.20;25.85;;;;;;;;;;4992172;28;20241;-73
2021/09/11 07:00:36;;;;;;;37.55;25.33;;;;;;;;;;4986802;28;20195;-74
2021/09/11 07:03:02;;;;;;;38.72;26.48;;;;;;;;;;4994521;28;20186;-74
2021/09/11 07:05:27;;;;;;;39.88;27.20;;;;;;;;;;4986013;28;20234;-73
2021/09/11 07:07:52;;;;;;;42.83;27.98;;;;;;;;;;4994587;28;20649;-74
2021/09/11 07:10:18;;;;;;;40.28;26.40;;;;;;;;;;4988664;28;20615;-73
2021/09/11 07:12:43;;;;;;;37.58;26.83;;;;;;;;;;4996251;28;20190;-73
2021/09/11 07:15:09;;;;;;;41.50;27.85;;;;;;;;;;4992677;28;20203;-74
2021/09/11 07:17:34;;;;;;;38.50;26.33;;;;;;;;;;4989846;28;20759;-74
2021/09/11 07:20:00;;;;;;;37.67;27.63;;;;;;;;;;4995915;28;20174;-74
2021/09/11 07:22:25;;;;;;;36.97;25.60;;;;;;;;;;4988345;28;20326;-74
2021/09/11 07:24:50;;;;;;;35.90;26.45;;;;;;;;;;4996468;28;20195;-73
2021/09/11 07:27:17;;;;;;;39.30;27.52;;;;;;;;;;4989925;28;20198;-75
2021/09/11 07:29:43;;;;;;;37.78;27.52;;;;;;;;;;4994652;28;20217;-74
2021/09/11 07:32:08;;;;;;;39.78;27.33;;;;;;;;;;4988014;28;20191;-74
2021/09/11 07:34:34;;;;;;;40.17;27.55;;;;;;;;;;4995175;28;20208;-73
2021/09/11 07:36:59;;;;;;;37.40;26.80;;;;;;;;;;4987990;28;20730;-75
2021/09/11 07:39:24;;;;;;;34.63;27.55;;;;;;;;;;4995895;28;20190;-74
2021/09/11 07:41:50;;;;;;;34.53;26.48;;;;;;;;;;4989784;28;20592;-75
2021/09/11 07:44:15;;;;;;;37.53;26.95;;;;;;;;;;4996502;28;20302;-74
2021/09/11 07:46:40;;;;;;;40.67;27.48;;;;;;;;;;4996288;28;20198;-73
2021/09/11 07:49:06;;;;;;;39.22;26.85;;;;;;;;;;4985748;28;20592;-74
2021/09/11 07:51:31;;;;;;;37.50;26.58;;;;;;;;;;4996765;28;20716;-74
2021/09/11 07:53:57;;;;;;;41.03;28.70;;;;;;;;;;4987858;28;20280;-74
2021/09/11 07:56:23;;;;;;;38.72;27.70;;;;;;;;;;4999987;28;20673;-74
2021/09/11 07:58:49;;;;;;;39.33;28.90;;;;;;;;;;4988719;28;20823;-75
2021/09/11 08:01:14;;;;;;;41.22;28.13;;;;;;;;;;4996071;28;20306;-73
2021/09/11 08:03:39;;;;;;;39.83;29.05;;;;;;;;;;4987499;28;20210;-73
2021/09/11 08:06:07;;;;;;;43.38;26.70;;;;;;;;;;4996448;28;20234;-76
2021/09/11 08:08:37;;;;;;;35.17;25.77;;;;;;;;;;4987686;28;20275;-73
2021/09/11 08:11:03;;;;;;;35.63;25.20;;;;;;;;;;4995624;28;20617;-73
2021/09/11 08:13:29;;;;;;;42.53;25.95;;;;;;;;;;4988936;28;20209;-73
2021/09/11 08:15:55;;;;;;;39.58;26.40;;;;;;;;;;4995928;28;20229;-74
2021/09/11 08:18:20;;;;;;;39.97;26.38;;;;;;;;;;4993750;28;20237;-73
2021/09/11 08:20:45;;;;;;;36.47;25.58;;;;;;;;;;4987929;28;20213;-74
2021/09/11 08:23:11;;;;;;;34.28;25.15;;;;;;;;;;4993299;28;20658;-75
2021/09/11 08:25:36;;;;;;;34.45;24.65;;;;;;;;;;4989426;28;20544;-75
2021/09/11 08:28:02;;;;;;;30.02;22.65;;;;;;;;;;4995151;28;20306;-74
2021/09/11 08:30:27;;;;;;;31.92;22.23;;;;;;;;;;4988448;28;20245;-74
2021/09/11 08:32:53;;;;;;;30.90;23.63;;;;;;;;;;4994274;28;20188;-76
2021/09/11 08:35:18;;;;;;;30.00;22.85;;;;;;;;;;4985851;28;20194;-75
2021/09/11 08:37:44;;;;;;;26.45;21.48;;;;;;;;;;4995179;28;20193;-75
2021/09/11 08:40:12;;;;;;;32.95;23.25;;;;;;;;;;4984918;28;20264;-75
2021/09/11 08:42:38;;;;;;;29.13;21.67;;;;;;;;;;4995037;28;20654;-74
2021/09/11 08:45:04;;;;;;;26.23;21.08;;;;;;;;;;4995884;28;20489;-75
2021/09/11 08:47:30;;;;;;;27.02;20.98;;;;;;;;;;4987484;28;20187;-75
2021/09/11 08:49:55;;;;;;;27.05;20.60;;;;;;;;;;4993926;28;21683;-75
2021/09/11 08:52:20;;;;;;;24.73;21.50;;;;;;;;;;4985138;28;20235;-76
2021/09/11 08:54:46;;;;;;;24.95;21.27;;;;;;;;;;4995951;28;20195;-74
2021/09/11 08:57:25;;;;;;;24.65;21.65;;;;;;;;;;4986521;28;20222;-75
2021/09/11 08:59:52;;;;;;;27.60;20.55;;;;;;;;;;4995440;28;20198;-76
2021/09/11 09:02:21;;;;;;;26.67;21.27;;;;;;;;;;4985861;28;20183;-75
2021/09/11 09:04:55;;;;;;;27.50;21.45;;;;;;;;;;4993159;28;20282;-76
2021/09/11 09:07:41;;;;;;;26.90;21.17;;;;;;;;;;4982207;28;20194;-76
2021/09/11 09:10:10;;;;;;;30.63;21.30;;;;;;;;;;4992812;28;20211;-75
2021/09/11 09:12:40;;;;;;;27.83;22.08;;;;;;;;;;4984556;28;20675;-76
2021/09/11 09:15:09;;;;;;;29.23;23.10;;;;;;;;;;4993351;28;20191;-75
2021/09/11 09:17:42;;;;;;;31.13;23.20;;;;;;;;;;4985568;28;20198;-75
2021/09/11 09:20:19;;;;;;;26.33;22.10;;;;;;;;;;4990710;28;20191;-75
2021/09/11 09:22:50;;;;;;;30.30;22.40;;;;;;;;;;4987217;28;20191;-76
2021/09/11 09:25:24;;;;;;;30.77;22.35;;;;;;;;;;4992543;28;20307;-76
2021/09/11 09:27:51;;;;;;;27.55;22.40;;;;;;;;;;4987469;28;20298;-75
2021/09/11 09:30:22;;;;;;;33.83;24.52;;;;;;;;;;4993476;28;20226;-76
2021/09/11 09:32:51;;;;;;;27.35;21.67;;;;;;;;;;4988189;28;20186;-76
2021/09/11 09:35:22;;;;;;;30.70;22.17;;;;;;;;;;4992959;28;20194;-75
2021/09/11 09:37:59;;;;;;;27.15;23.00;;;;;;;;;;4995816;28;20198;-75
2021/09/11 09:40:39;;;;;;;28.15;21.00;;;;;;;;;;4986859;28;20194;-74
2021/09/11 09:43:06;;;;;;;26.77;20.17;;;;;;;;;;4996062;28;20182;-74
2021/09/11 09:45:33;;;;;;;25.63;20.95;;;;;;;;;;4985716;28;20195;-74
2021/09/11 09:48:16;;;;;;;26.00;19.90;;;;;;;;;;4991816;28;20645;-75
2021/09/11 09:50:42;;;;;;;30.73;20.20;;;;;;;;;;4987753;28;20386;-75
2021/09/11 09:53:09;;;;;;;25.10;20.60;;;;;;;;;;5000610;28;20289;-75
2021/09/11 09:55:39;;;;;;;23.25;19.33;;;;;;;;;;4992675;28;20183;-74
2021/09/11 09:58:06;;;;;;;30.05;21.20;;;;;;;;;;4999996;28;20221;-75
2021/09/11 10:00:31;;;;;;;23.70;20.15;;;;;;;;;;4988789;28;20851;-74
2021/09/11 10:02:56;;;;;;;24.88;20.23;;;;;;;;;;4995834;28;20206;-74
2021/09/11 10:05:25;;;;;;;25.88;19.80;;;;;;;;;;4989889;28;20222;-74
2021/09/11 10:07:58;;;;;;;26.40;19.83;;;;;;;;;;4998259;28;20570;-74
2021/09/11 10:10:29;;;;;;;29.15;20.65;;;;;;;;;;4987348;28;21572;-74
2021/09/11 10:13:10;;;;;;;29.58;20.80;;;;;;;;;;4998399;28;20190;-75
2021/09/11 10:15:38;;;;;;;23.75;20.08;;;;;;;;;;4296245;28;10000733;-73
2021/09/11 10:18:24;;;;;;;26.20;21.40;;;;;;;;;;4995004;28;20236;-73
2021/09/11 10:21:21;;;;;;;22.20;19.52;;;;;;;;;;4987766;28;20820;-74
2021/09/11 10:23:56;;;;;;;22.80;20.33;;;;;;;;;;4994815;28;20662;-75
2021/09/11 10:26:42;;;;;;;25.65;19.33;;;;;;;;;;4988765;28;20187;-75
2021/09/11 10:29:33;;;;;;;30.00;20.20;;;;;;;;;;4994390;28;20217;-76
2021/09/11 10:32:11;;;;;;;25.10;18.13;;;;;;;;;;4988185;28;20290;-74
2021/09/11 10:35:02;;;;;;;24.33;19.23;;;;;;;;;;4995840;28;20624;-74
2021/09/11 10:37:43;;;;;;;22.85;19.48;;;;;;;;;;4979872;28;20787;-74
2021/09/11 10:40:12;;;;;;;27.27;18.80;;;;;;;;;;4993701;28;20179;-74
2021/09/11 10:43:13;;;;;;;22.13;18.27;;;;;;;;;;4981497;28;20194;-74
2021/09/11 10:45:46;;;;;;;25.52;19.67;;;;;;;;;;4980601;28;20719;-76
2021/09/11 10:48:48;;;;;;;22.38;17.17;;;;;;;;;;4983938;28;20195;-74
2021/09/11 10:51:19;;;;;;;22.52;17.65;;;;;;;;;;5005874;28;20297;-75
2021/09/11 10:54:14;;;;;;;21.58;17.55;;;;;;;;;;4983762;28;20273;-76
2021/09/11 10:56:51;;;;;;;25.38;17.50;;;;;;;;;;4975371;28;20313;-76
2021/09/11 10:59:19;;;;;;;25.35;17.48;;;;;;;;;;4983723;28;20213;-76
2021/09/11 11:02:12;;;;;;;21.98;16.52;;;;;;;;;;4994096;28;20548;-75
2021/09/11 11:04:46;;;;;;;21.77;17.08;;;;;;;;;;4980371;28;20202;-75
2021/09/11 11:07:13;;;;;;;20.65;15.60;;;;;;;;;;4992621;28;20224;-75
2021/09/11 11:09:42;;;;;;;22.25;16.65;;;;;;;;;;4984275;28;20218;-76
2021/09/11 11:12:09;;;;;;;22.65;15.88;;;;;;;;;;4994825;28;20187;-75
2021/09/11 11:14:38;;;;;;;18.45;16.23;;;;;;;;;;4985952;28;20199;-76
2021/09/11 11:17:04;;;;;;;24.40;16.85;;;;;;;;;;4998319;28;20198;-76
2021/09/11 11:19:33;;;;;;;25.20;17.08;;;;;;;;;;4988295;28;20192;-75
2021/09/11 11:22:03;;;;;;;23.02;15.38;;;;;;;;;;4997669;28;20293;-74
2021/09/11 11:24:35;;;;;;;20.58;16.67;;;;;;;;;;4991778;28;20229;-76
2021/09/11 11:27:03;;;;;;;20.33;16.20;;;;;;;;;;4998112;28;20210;-75
2021/09/11 11:29:29;;;;;;;19.83;16.00;;;;;;;;;;4990526;28;20611;-76
2021/09/11 11:31:55;;;;;;;20.67;16.70;;;;;;;;;;4997899;28;20278;-77
2021/09/11 11:34:20;;;;;;;21.15;17.02;;;;;;;;;;4985263;28;20686;-74
2021/09/11 11:37:06;;;;;;;22.92;15.63;;;;;;;;;;4993303;28;20190;-74
2021/09/11 11:39:39;;;;;;;16.40;13.00;;;;;;;;;;4989052;28;20225;-75
2021/09/11 11:42:23;;;;;;;17.73;15.40;;;;;;;;;;4646609;28;9999806;-76
2021/09/11 11:44:51;;;;;;;19.60;14.65;;;;;;;;;;4987163;28;20178;-74
2021/09/11 11:47:47;;;;;;;15.75;14.15;;;;;;;;;;4991535;28;20281;-75
2021/09/11 11:50:23;;;;;;;18.75;15.65;;;;;;;;;;4984661;28;20238;-74
2021/09/11 11:52:55;;;;;;;16.83;14.30;;;;;;;;;;4992483;28;20170;-74
2021/09/11 11:55:22;;;;;;;16.65;14.88;;;;;;;;;;4988541;28;20556;-74
2021/09/11 11:57:48;;;;;;;20.40;15.18;;;;;;;;;;4994707;28;20206;-73
2021/09/11 12:00:16;;;;;;;20.40;14.50;;;;;;;;;;4993682;28;20189;-76
2021/09/11 12:02:46;;;;;;;18.98;14.98;;;;;;;;;;4986367;28;20531;-74
2021/09/11 12:05:19;;;;;;;20.05;15.48;;;;;;;;;;4995202;28;20322;-75
2021/09/11 12:08:02;;;;;;;19.33;14.65;;;;;;;;;;4985079;28;20335;-73
2021/09/11 12:10:30;;;;;;;21.30;14.80;;;;;;;;;;4993805;28;20218;-74
2021/09/11 12:13:03;;;;;;;17.67;15.10;;;;;;;;;;4986130;28;20229;-75
2021/09/11 12:15:29;;;;;;;21.83;15.15;;;;;;;;;;4992498;28;20194;-74
2021/09/11 12:17:57;;;;;;;17.98;15.20;;;;;;;;;;4987796;28;20187;-75
2021/09/11 12:20:24;;;;;;;18.30;15.32;;;;;;;;;;4996197;28;20233;-74
2021/09/11 12:23:05;;;;;;;21.17;16.75;;;;;;;;;;4988380;28;20205;-75
2021/09/11 12:25:49;;;;;;;23.02;16.17;;;;;;;;;;4991961;28;20191;-74
2021/09/11 12:28:37;;;;;;;22.05;16.15;;;;;;;;;;4988416;28;20245;-72
2021/09/11 12:31:22;;;;;;;19.63;17.00;;;;;;;;;;4996788;28;20225;-74
2021/09/11 12:34:01;;;;;;;20.38;16.88;;;;;;;;;;4988015;28;20205;-73
2021/09/11 12:36:34;;;;;;;18.08;15.95;;;;;;;;;;4997075;28;21073;-72
2021/09/11 12:39:24;;;;;;;20.55;16.63;;;;;;;;;;4988673;28;20194;-75
2021/09/11 12:41:50;;;;;;;19.60;16.33;;;;;;;;;;4996783;28;20182;-73
2021/09/11 12:44:17;;;;;;;21.55;15.90;;;;;;;;;;4987512;28;20210;-73
2021/09/11 12:46:54;;;;;;;20.38;16.25;;;;;;;;;;4994267;28;20556;-74
2021/09/11 12:49:24;;;;;;;20.98;16.30;;;;;;;;;;4988868;28;20207;-73
2021/09/11 12:51:51;;;;;;;20.50;16.90;;;;;;;;;;4994572;28;20183;-73
2021/09/11 12:54:18;;;;;;;25.08;17.40;;;;;;;;;;4990657;28;20594;-75
2021/09/11 12:56:44;;;;;;;20.40;17.40;;;;;;;;;;4989804;28;20558;-75
2021/09/11 12:59:12;;;;;;;25.45;18.25;;;;;;;;;;4987426;28;20214;-73
2021/09/11 13:01:37;;;;;;;22.88;18.08;;;;;;;;;;4996897;28;20956;-76
2021/09/11 13:04:08;;;;;;;22.52;16.88;;;;;;;;;;4987274;28;20187;-74
2021/09/11 13:06:35;;;;;;;21.70;17.35;;;;;;;;;;4993877;28;20256;-73
2021/09/11 13:09:02;;;;;;;21.15;18.23;;;;;;;;;;4998610;28;20206;-73
2021/09/11 13:11:27;;;;;;;21.23;16.23;;;;;;;;;;4985125;28;20230;-73
2021/09/11 13:13:52;;;;;;;24.20;18.05;;;;;;;;;;4995431;28;20639;-75
2021/09/11 13:16:18;;;;;;;21.30;17.20;;;;;;;;;;4986936;28;20189;-75
2021/09/11 13:18:45;;;;;;;20.20;16.67;;;;;;;;;;4996966;28;20190;-76
2021/09/11 13:21:12;;;;;;;20.13;16.80;;;;;;;;;;4986567;28;20202;-74
2021/09/11 13:23:43;;;;;;;24.27;17.15;;;;;;;;;;4997001;28;20182;-77
2021/09/11 13:26:10;;;;;;;22.67;17.20;;;;;;;;;;4984799;28;20236;-75
2021/09/11 13:28:37;;;;;;;26.15;17.58;;;;;;;;;;5003025;28;20185;-73
2021/09/11 13:31:02;;;;;;;19.23;16.02;;;;;;;;;;4992372;28;20210;-73
2021/09/11 13:33:28;;;;;;;18.60;16.35;;;;;;;;;;4999972;28;20677;-74
2021/09/11 13:35:54;;;;;;;20.85;16.80;;;;;;;;;;4993555;28;22101;-75
2021/09/11 13:38:20;;;;;;;18.95;16.30;;;;;;;;;;4999605;28;20209;-76
2021/09/11 13:40:45;;;;;;;21.35;15.68;;;;;;;;;;5001442;28;20770;-74
2021/09/11 13:43:10;;;;;;;20.95;16.15;;;;;;;;;;4993665;28;20272;-73
2021/09/11 13:45:36;;;;;;;20.23;15.60;;;;;;;;;;5002658;28;20224;-72
2021/09/11 13:48:02;;;;;;;21.50;16.05;;;;;;;;;;4992600;28;20845;-75
2021/09/11 13:50:28;;;;;;;18.30;15.57;;;;;;;;;;4996784;28;20870;-74
2021/09/11 13:52:53;;;;;;;19.17;15.27;;;;;;;;;;5007128;28;20191;-72
2021/09/11 13:55:18;;;;;;;17.38;14.27;;;;;;;;;;4996175;28;20194;-72
2021/09/11 13:57:44;;;;;;;18.55;14.80;;;;;;;;;;4993046;28;20715;-75
2021/09/11 14:00:10;;;;;;;18.50;14.23;;;;;;;;;;5001584;28;20179;-72
2021/09/11 14:02:35;;;;;;;16.67;14.57;;;;;;;;;;4993384;28;20207;-74
2021/09/11 14:05:01;;;;;;;15.90;14.15;;;;;;;;;;5001968;28;20284;-74
2021/09/11 14:07:26;;;;;;;20.35;14.48;;;;;;;;;;4991057;28;20191;-76
2021/09/11 14:09:51;;;;;;;17.95;14.35;;;;;;;;;;5002205;28;20226;-72
2021/09/11 14:12:17;;;;;;;19.30;14.00;;;;;;;;;;4998195;28;20241;-72
2021/09/11 14:14:42;;;;;;;19.02;15.02;;;;;;;;;;4991948;28;20596;-71
2021/09/11 14:17:07;;;;;;;22.02;15.60;;;;;;;;;;4999234;28;20734;-72
2021/09/11 14:19:33;;;;;;;19.83;15.43;;;;;;;;;;4991388;28;20282;-73